sensor_id;sensor_type;location;lat;lon;timestamp;P1;durP1;ratioP1;P2;durP2;ratioP2
11548;SDS011;61444;59.472;18.306;2024-02-16T00:01:54;179.87;;;19.70;;
11548;SDS011;61444;59.472;18.306;2024-02-16T00:04:04;206.37;;;22.10;;
11548;SDS011;61444;59.472;18.306;2024-02-16T00:06:14;216.73;;;20.43;;
11548;SDS011;61444;59.472;18.306;2024-02-16T00:08:22;226.27;;;23.80;;
11548;SDS011;61444;59.472;18.306;2024-02-16T00:10:30;217.37;;;23.90;;
11548;SDS011;61444;59.472;18.306;2024-02-16T00:12:39;256.57;;;22.23;;
11548;SDS011;61444;59.472;18.306;2024-02-16T00:14:46;271.70;;;23.20;;
11548;SDS011;61444;59.472;18.306;2024-02-16T00:16:55;163.13;;;17.20;;
11548;SDS011;61444;59.472;18.306;2024-02-16T00:19:05;255.03;;;22.60;;
11548;SDS011;61444;59.472;18.306;2024-02-16T00:21:15;220.43;;;22.97;;
11548;SDS011;61444;59.472;18.306;2024-02-16T00:23:24;116.03;;;15.70;;
11548;SDS011;61444;59.472;18.306;2024-02-16T00:25:33;154.87;;;18.80;;
11548;SDS011;61444;59.472;18.306;2024-02-16T00:27:41;236.87;;;20.90;;
11548;SDS011;61444;59.472;18.306;2024-02-16T00:29:50;132.80;;;16.17;;
11548;SDS011;61444;59.472;18.306;2024-02-16T00:31:59;164.30;;;19.57;;
11548;SDS011;61444;59.472;18.306;2024-02-16T00:34:10;240.37;;;22.97;;
11548;SDS011;61444;59.472;18.306;2024-02-16T00:36:19;207.57;;;22.00;;
11548;SDS011;61444;59.472;18.306;2024-02-16T00:38:27;166.90;;;19.40;;
11548;SDS011;61444;59.472;18.306;2024-02-16T00:40:36;148.87;;;16.37;;
11548;SDS011;61444;59.472;18.306;2024-02-16T00:42:50;134.63;;;15.27;;
11548;SDS011;61444;59.472;18.306;2024-02-16T00:44:58;233.10;;;21.07;;
11548;SDS011;61444;59.472;18.306;2024-02-16T00:47:07;98.97;;;13.57;;
11548;SDS011;61444;59.472;18.306;2024-02-16T00:49:18;126.03;;;15.13;;
11548;SDS011;61444;59.472;18.306;2024-02-16T00:51:27;151.37;;;17.40;;
11548;SDS011;61444;59.472;18.306;2024-02-16T00:53:36;134.10;;;15.80;;
11548;SDS011;61444;59.472;18.306;2024-02-16T00:55:44;192.60;;;24.60;;
11548;SDS011;61444;59.472;18.306;2024-02-16T00:57:53;144.93;;;17.00;;
11548;SDS011;61444;59.472;18.306;2024-02-16T01:00:02;136.20;;;17.17;;
11548;SDS011;61444;59.472;18.306;2024-02-16T01:02:11;140.70;;;16.57;;
11548;SDS011;61444;59.472;18.306;2024-02-16T01:04:21;147.33;;;17.40;;
11548;SDS011;61444;59.472;18.306;2024-02-16T01:06:30;102.87;;;13.47;;
11548;SDS011;61444;59.472;18.306;2024-02-16T01:08:39;135.57;;;17.53;;
11548;SDS011;61444;59.472;18.306;2024-02-16T01:10:49;167.87;;;17.60;;
11548;SDS011;61444;59.472;18.306;2024-02-16T01:12:57;125.03;;;16.47;;
11548;SDS011;61444;59.472;18.306;2024-02-16T01:15:06;134.63;;;17.03;;
11548;SDS011;61444;59.472;18.306;2024-02-16T01:17:15;89.13;;;13.10;;
11548;SDS011;61444;59.472;18.306;2024-02-16T01:19:26;96.90;;;14.50;;
11548;SDS011;61444;59.472;18.306;2024-02-16T01:21:35;138.57;;;15.57;;
11548;SDS011;61444;59.472;18.306;2024-02-16T01:23:44;186.57;;;18.67;;
11548;SDS011;61444;59.472;18.306;2024-02-16T01:25:52;100.73;;;16.00;;
11548;SDS011;61444;59.472;18.306;2024-02-16T01:28:01;99.67;;;15.40;;
11548;SDS011;61444;59.472;18.306;2024-02-16T01:30:10;91.33;;;13.57;;
11548;SDS011;61444;59.472;18.306;2024-02-16T01:32:20;123.23;;;16.23;;
11548;SDS011;61444;59.472;18.306;2024-02-16T01:34:30;120.63;;;15.70;;
11548;SDS011;61444;59.472;18.306;2024-02-16T01:36:39;129.53;;;17.93;;
11548;SDS011;61444;59.472;18.306;2024-02-16T01:38:48;78.03;;;13.83;;
11548;SDS011;61444;59.472;18.306;2024-02-16T01:40:57;120.67;;;16.23;;
11548;SDS011;61444;59.472;18.306;2024-02-16T01:43:05;101.33;;;16.47;;
11548;SDS011;61444;59.472;18.306;2024-02-16T01:45:14;94.23;;;14.47;;
11548;SDS011;61444;59.472;18.306;2024-02-16T01:47:23;81.47;;;14.63;;
11548;SDS011;61444;59.472;18.306;2024-02-16T01:49:33;99.27;;;16.40;;
11548;SDS011;61444;59.472;18.306;2024-02-16T01:51:42;113.53;;;16.93;;
11548;SDS011;61444;59.472;18.306;2024-02-16T01:53:52;78.27;;;14.40;;
11548;SDS011;61444;59.472;18.306;2024-02-16T01:56:02;76.87;;;13.97;;
11548;SDS011;61444;59.472;18.306;2024-02-16T01:58:11;75.07;;;14.27;;
11548;SDS011;61444;59.472;18.306;2024-02-16T02:00:20;76.13;;;14.57;;
11548;SDS011;61444;59.472;18.306;2024-02-16T02:02:28;78.97;;;16.07;;
11548;SDS011;61444;59.472;18.306;2024-02-16T02:04:39;69.83;;;12.93;;
11548;SDS011;61444;59.472;18.306;2024-02-16T02:06:48;83.93;;;14.33;;
11548;SDS011;61444;59.472;18.306;2024-02-16T02:08:57;77.97;;;15.33;;
11548;SDS011;61444;59.472;18.306;2024-02-16T02:11:06;67.70;;;13.87;;
11548;SDS011;61444;59.472;18.306;2024-02-16T02:13:14;120.30;;;16.77;;
11548;SDS011;61444;59.472;18.306;2024-02-16T02:15:23;84.53;;;15.33;;
11548;SDS011;61444;59.472;18.306;2024-02-16T02:17:32;91.33;;;14.73;;
11548;SDS011;61444;59.472;18.306;2024-02-16T02:19:42;98.23;;;15.87;;
11548;SDS011;61444;59.472;18.306;2024-02-16T02:21:51;79.63;;;15.70;;
11548;SDS011;61444;59.472;18.306;2024-02-16T02:24:01;87.33;;;15.60;;
11548;SDS011;61444;59.472;18.306;2024-02-16T02:26:09;83.43;;;15.70;;
11548;SDS011;61444;59.472;18.306;2024-02-16T02:28:18;81.47;;;15.17;;
11548;SDS011;61444;59.472;18.306;2024-02-16T02:30:30;101.17;;;18.73;;
11548;SDS011;61444;59.472;18.306;2024-02-16T02:32:39;101.30;;;16.07;;
11548;SDS011;61444;59.472;18.306;2024-02-16T02:34:49;89.03;;;15.27;;
11548;SDS011;61444;59.472;18.306;2024-02-16T02:36:58;99.30;;;17.03;;
11548;SDS011;61444;59.472;18.306;2024-02-16T02:39:07;73.00;;;14.90;;
11548;SDS011;61444;59.472;18.306;2024-02-16T02:41:16;114.00;;;20.70;;
11548;SDS011;61444;59.472;18.306;2024-02-16T02:43:26;81.90;;;11.13;;
11548;SDS011;61444;59.472;18.306;2024-02-16T02:45:35;82.93;;;16.00;;
11548;SDS011;61444;59.472;18.306;2024-02-16T02:47:43;88.40;;;15.37;;
11548;SDS011;61444;59.472;18.306;2024-02-16T02:49:55;63.70;;;13.23;;
11548;SDS011;61444;59.472;18.306;2024-02-16T02:52:04;71.40;;;14.80;;
11548;SDS011;61444;59.472;18.306;2024-02-16T02:54:14;37.83;;;9.47;;
11548;SDS011;61444;59.472;18.306;2024-02-16T02:56:23;58.27;;;14.43;;
11548;SDS011;61444;59.472;18.306;2024-02-16T02:58:31;61.67;;;14.27;;
11548;SDS011;61444;59.472;18.306;2024-02-16T03:00:40;55.27;;;13.87;;
11548;SDS011;61444;59.472;18.306;2024-02-16T03:02:49;56.33;;;14.13;;
11548;SDS011;61444;59.472;18.306;2024-02-16T03:04:57;64.00;;;14.30;;
11548;SDS011;61444;59.472;18.306;2024-02-16T03:07:06;56.93;;;14.83;;
11548;SDS011;61444;59.472;18.306;2024-02-16T03:09:16;48.80;;;12.30;;
11548;SDS011;61444;59.472;18.306;2024-02-16T03:11:24;50.37;;;13.63;;
11548;SDS011;61444;59.472;18.306;2024-02-16T03:13:33;47.93;;;12.57;;
11548;SDS011;61444;59.472;18.306;2024-02-16T03:15:42;54.23;;;12.87;;
11548;SDS011;61444;59.472;18.306;2024-02-16T03:17:50;36.30;;;11.63;;
11548;SDS011;61444;59.472;18.306;2024-02-16T03:19:59;45.43;;;12.37;;
11548;SDS011;61444;59.472;18.306;2024-02-16T03:22:08;45.07;;;12.57;;
11548;SDS011;61444;59.472;18.306;2024-02-16T03:24:17;36.87;;;11.67;;
11548;SDS011;61444;59.472;18.306;2024-02-16T03:26:25;29.03;;;7.67;;
11548;SDS011;61444;59.472;18.306;2024-02-16T03:28:34;42.23;;;11.17;;
11548;SDS011;61444;59.472;18.306;2024-02-16T03:30:43;37.33;;;11.23;;
11548;SDS011;61444;59.472;18.306;2024-02-16T03:32:52;37.47;;;11.10;;
11548;SDS011;61444;59.472;18.306;2024-02-16T03:35:01;28.23;;;9.77;;
11548;SDS011;61444;59.472;18.306;2024-02-16T03:37:10;34.57;;;11.20;;
11548;SDS011;61444;59.472;18.306;2024-02-16T03:39:20;31.00;;;10.20;;
11548;SDS011;61444;59.472;18.306;2024-02-16T03:41:29;32.77;;;10.33;;
11548;SDS011;61444;59.472;18.306;2024-02-16T03:43:38;26.43;;;9.57;;
11548;SDS011;61444;59.472;18.306;2024-02-16T03:45:45;31.60;;;10.33;;
11548;SDS011;61444;59.472;18.306;2024-02-16T03:47:54;26.10;;;9.33;;
11548;SDS011;61444;59.472;18.306;2024-02-16T03:50:06;30.80;;;9.80;;
11548;SDS011;61444;59.472;18.306;2024-02-16T03:52:14;30.50;;;10.23;;
11548;SDS011;61444;59.472;18.306;2024-02-16T03:54:24;29.53;;;8.90;;
11548;SDS011;61444;59.472;18.306;2024-02-16T03:56:33;24.67;;;8.70;;
11548;SDS011;61444;59.472;18.306;2024-02-16T03:58:42;26.00;;;9.27;;
11548;SDS011;61444;59.472;18.306;2024-02-16T04:00:50;21.93;;;7.83;;
11548;SDS011;61444;59.472;18.306;2024-02-16T04:03:00;27.90;;;10.50;;
11548;SDS011;61444;59.472;18.306;2024-02-16T04:05:09;24.93;;;9.40;;
11548;SDS011;61444;59.472;18.306;2024-02-16T04:07:17;21.50;;;7.97;;
11548;SDS011;61444;59.472;18.306;2024-02-16T04:09:28;23.20;;;8.83;;
11548;SDS011;61444;59.472;18.306;2024-02-16T04:11:36;27.23;;;8.63;;
11548;SDS011;61444;59.472;18.306;2024-02-16T04:13:45;25.77;;;10.73;;
11548;SDS011;61444;59.472;18.306;2024-02-16T04:15:53;26.60;;;8.87;;
11548;SDS011;61444;59.472;18.306;2024-02-16T04:18:02;19.37;;;8.10;;
11548;SDS011;61444;59.472;18.306;2024-02-16T04:20:10;19.90;;;8.20;;
11548;SDS011;61444;59.472;18.306;2024-02-16T04:22:19;17.83;;;6.67;;
11548;SDS011;61444;59.472;18.306;2024-02-16T04:24:29;20.17;;;7.93;;
11548;SDS011;61444;59.472;18.306;2024-02-16T04:26:38;22.33;;;9.13;;
11548;SDS011;61444;59.472;18.306;2024-02-16T04:28:46;19.53;;;8.47;;
11548;SDS011;61444;59.472;18.306;2024-02-16T04:30:55;18.73;;;8.40;;
11548;SDS011;61444;59.472;18.306;2024-02-16T04:33:04;19.00;;;8.27;;
11548;SDS011;61444;59.472;18.306;2024-02-16T04:35:13;18.33;;;7.97;;
11548;SDS011;61444;59.472;18.306;2024-02-16T04:37:22;21.43;;;8.97;;
11548;SDS011;61444;59.472;18.306;2024-02-16T04:39:33;18.60;;;8.43;;
11548;SDS011;61444;59.472;18.306;2024-02-16T04:41:42;20.33;;;8.17;;
11548;SDS011;61444;59.472;18.306;2024-02-16T04:43:50;17.23;;;6.57;;
11548;SDS011;61444;59.472;18.306;2024-02-16T04:45:59;18.60;;;7.77;;
11548;SDS011;61444;59.472;18.306;2024-02-16T04:48:08;15.60;;;7.30;;
11548;SDS011;61444;59.472;18.306;2024-02-16T04:50:17;19.80;;;6.90;;
11548;SDS011;61444;59.472;18.306;2024-02-16T04:52:27;17.97;;;7.87;;
11548;SDS011;61444;59.472;18.306;2024-02-16T04:54:38;16.07;;;7.63;;
11548;SDS011;61444;59.472;18.306;2024-02-16T04:56:47;14.10;;;6.40;;
11548;SDS011;61444;59.472;18.306;2024-02-16T04:58:56;15.50;;;7.00;;
11548;SDS011;61444;59.472;18.306;2024-02-16T05:01:05;14.03;;;6.57;;
11548;SDS011;61444;59.472;18.306;2024-02-16T05:03:14;11.83;;;5.10;;
11548;SDS011;61444;59.472;18.306;2024-02-16T05:05:23;11.87;;;5.60;;
11548;SDS011;61444;59.472;18.306;2024-02-16T05:07:32;13.77;;;6.50;;
11548;SDS011;61444;59.472;18.306;2024-02-16T05:09:44;11.97;;;6.13;;
11548;SDS011;61444;59.472;18.306;2024-02-16T05:11:52;13.97;;;6.77;;
11548;SDS011;61444;59.472;18.306;2024-02-16T05:14:01;11.90;;;5.63;;
11548;SDS011;61444;59.472;18.306;2024-02-16T05:16:10;11.00;;;6.03;;
11548;SDS011;61444;59.472;18.306;2024-02-16T05:18:21;14.37;;;5.77;;
11548;SDS011;61444;59.472;18.306;2024-02-16T05:20:29;9.40;;;4.97;;
11548;SDS011;61444;59.472;18.306;2024-02-16T05:22:38;11.50;;;5.50;;
11548;SDS011;61444;59.472;18.306;2024-02-16T05:24:47;11.37;;;5.23;;
11548;SDS011;61444;59.472;18.306;2024-02-16T05:26:56;15.83;;;5.47;;
11548;SDS011;61444;59.472;18.306;2024-02-16T05:29:04;10.07;;;4.90;;
11548;SDS011;61444;59.472;18.306;2024-02-16T05:31:14;9.97;;;5.17;;
11548;SDS011;61444;59.472;18.306;2024-02-16T05:33:23;9.37;;;4.90;;
11548;SDS011;61444;59.472;18.306;2024-02-16T05:35:33;10.00;;;5.40;;
11548;SDS011;61444;59.472;18.306;2024-02-16T05:37:46;9.23;;;5.23;;
11548;SDS011;61444;59.472;18.306;2024-02-16T05:39:59;10.10;;;4.90;;
11548;SDS011;61444;59.472;18.306;2024-02-16T05:42:25;5.50;;;3.53;;
11548;SDS011;61444;59.472;18.306;2024-02-16T05:44:33;8.20;;;4.37;;
11548;SDS011;61444;59.472;18.306;2024-02-16T05:46:44;8.20;;;3.83;;
11548;SDS011;61444;59.472;18.306;2024-02-16T05:48:52;6.07;;;4.07;;
11548;SDS011;61444;59.472;18.306;2024-02-16T05:51:00;5.50;;;3.70;;
11548;SDS011;61444;59.472;18.306;2024-02-16T05:53:09;7.63;;;3.90;;
11548;SDS011;61444;59.472;18.306;2024-02-16T05:55:19;5.57;;;3.10;;
11548;SDS011;61444;59.472;18.306;2024-02-16T05:57:30;6.47;;;4.07;;
11548;SDS011;61444;59.472;18.306;2024-02-16T05:59:39;5.67;;;3.57;;
11548;SDS011;61444;59.472;18.306;2024-02-16T06:01:48;4.93;;;3.60;;
11548;SDS011;61444;59.472;18.306;2024-02-16T06:03:57;4.57;;;2.60;;
11548;SDS011;61444;59.472;18.306;2024-02-16T06:06:05;6.57;;;3.43;;
11548;SDS011;61444;59.472;18.306;2024-02-16T06:08:14;5.80;;;3.27;;
11548;SDS011;61444;59.472;18.306;2024-02-16T06:10:25;5.63;;;3.27;;
11548;SDS011;61444;59.472;18.306;2024-02-16T06:12:36;3.73;;;2.20;;
11548;SDS011;61444;59.472;18.306;2024-02-16T06:14:44;4.07;;;2.70;;
11548;SDS011;61444;59.472;18.306;2024-02-16T06:16:54;3.50;;;2.57;;
11548;SDS011;61444;59.472;18.306;2024-02-16T06:19:03;4.53;;;2.43;;
11548;SDS011;61444;59.472;18.306;2024-02-16T06:21:14;5.60;;;2.97;;
11548;SDS011;61444;59.472;18.306;2024-02-16T06:23:24;3.40;;;2.70;;
11548;SDS011;61444;59.472;18.306;2024-02-16T06:25:34;5.10;;;3.47;;
11548;SDS011;61444;59.472;18.306;2024-02-16T06:27:43;6.43;;;3.57;;
11548;SDS011;61444;59.472;18.306;2024-02-16T06:29:52;4.43;;;2.80;;
11548;SDS011;61444;59.472;18.306;2024-02-16T06:32:01;6.27;;;3.33;;
11548;SDS011;61444;59.472;18.306;2024-02-16T06:34:09;6.17;;;3.60;;
11548;SDS011;61444;59.472;18.306;2024-02-16T06:36:18;4.63;;;3.30;;
11548;SDS011;61444;59.472;18.306;2024-02-16T06:38:27;5.30;;;3.30;;
11548;SDS011;61444;59.472;18.306;2024-02-16T06:40:37;4.70;;;3.33;;
11548;SDS011;61444;59.472;18.306;2024-02-16T06:42:45;4.93;;;3.00;;
11548;SDS011;61444;59.472;18.306;2024-02-16T06:44:54;4.97;;;2.70;;
11548;SDS011;61444;59.472;18.306;2024-02-16T06:47:03;2.70;;;1.87;;
11548;SDS011;61444;59.472;18.306;2024-02-16T06:49:12;4.23;;;2.87;;
11548;SDS011;61444;59.472;18.306;2024-02-16T06:51:21;4.37;;;2.77;;
11548;SDS011;61444;59.472;18.306;2024-02-16T06:53:30;4.90;;;2.57;;
11548;SDS011;61444;59.472;18.306;2024-02-16T06:55:40;4.97;;;2.50;;
11548;SDS011;61444;59.472;18.306;2024-02-16T06:57:51;3.13;;;2.00;;
11548;SDS011;61444;59.472;18.306;2024-02-16T06:59:59;3.00;;;2.23;;
11548;SDS011;61444;59.472;18.306;2024-02-16T07:02:09;4.40;;;2.27;;
11548;SDS011;61444;59.472;18.306;2024-02-16T07:04:19;3.60;;;2.47;;
11548;SDS011;61444;59.472;18.306;2024-02-16T07:06:27;2.43;;;2.23;;
11548;SDS011;61444;59.472;18.306;2024-02-16T07:08:36;3.50;;;2.50;;
11548;SDS011;61444;59.472;18.306;2024-02-16T07:10:46;2.77;;;1.80;;
11548;SDS011;61444;59.472;18.306;2024-02-16T07:12:58;4.10;;;2.13;;
11548;SDS011;61444;59.472;18.306;2024-02-16T07:15:07;3.60;;;2.50;;
11548;SDS011;61444;59.472;18.306;2024-02-16T07:17:16;3.03;;;2.43;;
11548;SDS011;61444;59.472;18.306;2024-02-16T07:19:25;2.93;;;2.33;;
11548;SDS011;61444;59.472;18.306;2024-02-16T07:21:33;2.90;;;2.30;;
11548;SDS011;61444;59.472;18.306;2024-02-16T07:23:42;3.13;;;1.87;;
11548;SDS011;61444;59.472;18.306;2024-02-16T07:25:52;3.30;;;2.00;;
11548;SDS011;61444;59.472;18.306;2024-02-16T07:28:03;2.93;;;1.83;;
11548;SDS011;61444;59.472;18.306;2024-02-16T07:30:12;3.10;;;2.00;;
11548;SDS011;61444;59.472;18.306;2024-02-16T07:32:28;2.10;;;1.90;;
11548;SDS011;61444;59.472;18.306;2024-02-16T07:34:37;2.60;;;2.00;;
11548;SDS011;61444;59.472;18.306;2024-02-16T07:36:45;4.07;;;2.20;;
11548;SDS011;61444;59.472;18.306;2024-02-16T07:38:54;4.23;;;3.00;;
11548;SDS011;61444;59.472;18.306;2024-02-16T07:41:04;1.60;;;1.50;;
11548;SDS011;61444;59.472;18.306;2024-02-16T07:43:15;4.07;;;1.93;;
11548;SDS011;61444;59.472;18.306;2024-02-16T07:45:28;2.93;;;2.10;;
11548;SDS011;61444;59.472;18.306;2024-02-16T07:47:36;2.37;;;1.73;;
11548;SDS011;61444;59.472;18.306;2024-02-16T07:49:45;3.00;;;2.70;;
11548;SDS011;61444;59.472;18.306;2024-02-16T07:51:54;2.67;;;2.00;;
11548;SDS011;61444;59.472;18.306;2024-02-16T07:54:04;3.10;;;2.20;;
11548;SDS011;61444;59.472;18.306;2024-02-16T07:56:15;2.60;;;1.80;;
11548;SDS011;61444;59.472;18.306;2024-02-16T07:58:24;3.67;;;1.90;;
11548;SDS011;61444;59.472;18.306;2024-02-16T08:00:33;2.17;;;1.57;;
11548;SDS011;61444;59.472;18.306;2024-02-16T08:02:42;3.90;;;1.90;;
11548;SDS011;61444;59.472;18.306;2024-02-16T08:04:50;4.40;;;2.10;;
11548;SDS011;61444;59.472;18.306;2024-02-16T08:06:59;2.50;;;1.70;;
11548;SDS011;61444;59.472;18.306;2024-02-16T08:09:08;3.27;;;2.17;;
11548;SDS011;61444;59.472;18.306;2024-02-16T08:11:18;2.70;;;2.20;;
11548;SDS011;61444;59.472;18.306;2024-02-16T08:13:29;2.80;;;1.80;;
11548;SDS011;61444;59.472;18.306;2024-02-16T08:15:37;3.30;;;2.30;;
11548;SDS011;61444;59.472;18.306;2024-02-16T08:17:46;4.40;;;2.40;;
11548;SDS011;61444;59.472;18.306;2024-02-16T08:19:55;4.40;;;2.27;;
11548;SDS011;61444;59.472;18.306;2024-02-16T08:22:06;3.30;;;2.37;;
11548;SDS011;61444;59.472;18.306;2024-02-16T08:24:15;3.60;;;2.37;;
11548;SDS011;61444;59.472;18.306;2024-02-16T08:26:26;3.57;;;2.43;;
11548;SDS011;61444;59.472;18.306;2024-02-16T08:28:35;3.60;;;2.47;;
11548;SDS011;61444;59.472;18.306;2024-02-16T08:30:46;2.73;;;2.10;;
11548;SDS011;61444;59.472;18.306;2024-02-16T08:32:54;3.23;;;2.37;;
11548;SDS011;61444;59.472;18.306;2024-02-16T08:35:05;3.43;;;2.40;;
11548;SDS011;61444;59.472;18.306;2024-02-16T08:37:15;2.90;;;1.80;;
11548;SDS011;61444;59.472;18.306;2024-02-16T08:39:24;3.53;;;2.40;;
11548;SDS011;61444;59.472;18.306;2024-02-16T08:41:33;5.13;;;3.40;;
11548;SDS011;61444;59.472;18.306;2024-02-16T08:43:42;2.40;;;1.90;;
11548;SDS011;61444;59.472;18.306;2024-02-16T08:45:51;2.17;;;1.80;;
11548;SDS011;61444;59.472;18.306;2024-02-16T08:47:59;4.27;;;2.03;;
11548;SDS011;61444;59.472;18.306;2024-02-16T08:50:11;2.40;;;1.97;;
11548;SDS011;61444;59.472;18.306;2024-02-16T08:52:19;2.80;;;1.43;;
11548;SDS011;61444;59.472;18.306;2024-02-16T08:54:28;2.30;;;1.43;;
11548;SDS011;61444;59.472;18.306;2024-02-16T08:56:38;2.90;;;1.80;;
11548;SDS011;61444;59.472;18.306;2024-02-16T08:58:47;3.07;;;2.30;;
11548;SDS011;61444;59.472;18.306;2024-02-16T09:00:56;5.63;;;2.00;;
11548;SDS011;61444;59.472;18.306;2024-02-16T09:03:04;2.57;;;1.60;;
11548;SDS011;61444;59.472;18.306;2024-02-16T09:05:17;1.87;;;1.50;;
11548;SDS011;61444;59.472;18.306;2024-02-16T09:07:26;2.77;;;1.63;;
11548;SDS011;61444;59.472;18.306;2024-02-16T09:09:35;2.57;;;1.50;;
11548;SDS011;61444;59.472;18.306;2024-02-16T09:11:45;3.23;;;1.50;;
11548;SDS011;61444;59.472;18.306;2024-02-16T09:13:53;2.60;;;1.67;;
11548;SDS011;61444;59.472;18.306;2024-02-16T09:16:02;2.90;;;1.57;;
11548;SDS011;61444;59.472;18.306;2024-02-16T09:18:11;2.00;;;1.50;;
11548;SDS011;61444;59.472;18.306;2024-02-16T09:20:20;3.80;;;1.70;;
11548;SDS011;61444;59.472;18.306;2024-02-16T09:22:29;2.43;;;1.47;;
11548;SDS011;61444;59.472;18.306;2024-02-16T09:24:41;1.90;;;1.50;;
11548;SDS011;61444;59.472;18.306;2024-02-16T09:26:55;2.10;;;1.60;;
11548;SDS011;61444;59.472;18.306;2024-02-16T09:29:04;2.10;;;1.53;;
11548;SDS011;61444;59.472;18.306;2024-02-16T09:31:13;1.70;;;1.43;;
11548;SDS011;61444;59.472;18.306;2024-02-16T09:33:23;4.63;;;1.30;;
11548;SDS011;61444;59.472;18.306;2024-02-16T09:35:33;2.00;;;1.50;;
11548;SDS011;61444;59.472;18.306;2024-02-16T09:37:42;1.60;;;1.30;;
11548;SDS011;61444;59.472;18.306;2024-02-16T09:39:50;2.03;;;1.40;;
11548;SDS011;61444;59.472;18.306;2024-02-16T09:42:01;1.83;;;1.10;;
11548;SDS011;61444;59.472;18.306;2024-02-16T09:44:10;2.30;;;1.37;;
11548;SDS011;61444;59.472;18.306;2024-02-16T09:46:19;2.00;;;1.27;;
11548;SDS011;61444;59.472;18.306;2024-02-16T09:48:29;16.87;;;9.47;;
11548;SDS011;61444;59.472;18.306;2024-02-16T09:50:38;1.97;;;1.53;;
11548;SDS011;61444;59.472;18.306;2024-02-16T09:52:47;1.57;;;1.30;;
11548;SDS011;61444;59.472;18.306;2024-02-16T09:54:56;1.70;;;1.33;;
11548;SDS011;61444;59.472;18.306;2024-02-16T09:57:06;2.23;;;1.30;;
11548;SDS011;61444;59.472;18.306;2024-02-16T09:59:15;3.83;;;1.40;;
11548;SDS011;61444;59.472;18.306;2024-02-16T10:01:24;1.80;;;1.20;;
11548;SDS011;61444;59.472;18.306;2024-02-16T10:03:32;1.40;;;1.20;;
11548;SDS011;61444;59.472;18.306;2024-02-16T10:05:42;2.97;;;1.30;;
11548;SDS011;61444;59.472;18.306;2024-02-16T10:07:50;2.33;;;1.97;;
11548;SDS011;61444;59.472;18.306;2024-02-16T10:09:59;2.00;;;1.47;;
11548;SDS011;61444;59.472;18.306;2024-02-16T10:12:22;2.87;;;1.00;;
11548;SDS011;61444;59.472;18.306;2024-02-16T10:14:30;3.43;;;1.27;;
11548;SDS011;61444;59.472;18.306;2024-02-16T10:16:39;1.57;;;1.10;;
11548;SDS011;61444;59.472;18.306;2024-02-16T10:18:48;1.27;;;1.03;;
11548;SDS011;61444;59.472;18.306;2024-02-16T10:20:56;1.80;;;1.10;;
11548;SDS011;61444;59.472;18.306;2024-02-16T10:23:05;1.57;;;1.17;;
11548;SDS011;61444;59.472;18.306;2024-02-16T10:25:14;2.07;;;0.97;;
11548;SDS011;61444;59.472;18.306;2024-02-16T10:27:25;1.17;;;0.93;;
11548;SDS011;61444;59.472;18.306;2024-02-16T10:29:33;1.00;;;0.90;;
11548;SDS011;61444;59.472;18.306;2024-02-16T10:31:43;2.20;;;1.10;;
11548;SDS011;61444;59.472;18.306;2024-02-16T10:33:52;1.70;;;1.07;;
11548;SDS011;61444;59.472;18.306;2024-02-16T10:36:00;2.47;;;1.00;;
11548;SDS011;61444;59.472;18.306;2024-02-16T10:38:09;1.67;;;1.30;;
11548;SDS011;61444;59.472;18.306;2024-02-16T10:40:19;2.07;;;1.20;;
11548;SDS011;61444;59.472;18.306;2024-02-16T10:42:28;1.43;;;1.10;;
11548;SDS011;61444;59.472;18.306;2024-02-16T10:44:38;4.27;;;1.33;;
11548;SDS011;61444;59.472;18.306;2024-02-16T10:46:49;2.90;;;1.20;;
11548;SDS011;61444;59.472;18.306;2024-02-16T10:48:59;4.47;;;1.50;;
11548;SDS011;61444;59.472;18.306;2024-02-16T10:51:08;2.50;;;1.47;;
11548;SDS011;61444;59.472;18.306;2024-02-16T10:53:21;1.80;;;1.30;;
11548;SDS011;61444;59.472;18.306;2024-02-16T10:55:31;2.03;;;1.30;;
11548;SDS011;61444;59.472;18.306;2024-02-16T10:57:41;2.50;;;1.50;;
11548;SDS011;61444;59.472;18.306;2024-02-16T10:59:52;5.50;;;1.97;;
11548;SDS011;61444;59.472;18.306;2024-02-16T11:02:01;3.27;;;1.70;;
11548;SDS011;61444;59.472;18.306;2024-02-16T11:04:11;2.00;;;1.33;;
11548;SDS011;61444;59.472;18.306;2024-02-16T11:06:23;2.73;;;1.63;;
11548;SDS011;61444;59.472;18.306;2024-02-16T11:08:32;2.67;;;1.50;;
11548;SDS011;61444;59.472;18.306;2024-02-16T11:10:56;2.47;;;1.50;;
11548;SDS011;61444;59.472;18.306;2024-02-16T11:13:06;2.27;;;1.40;;
11548;SDS011;61444;59.472;18.306;2024-02-16T11:15:15;4.57;;;1.53;;
11548;SDS011;61444;59.472;18.306;2024-02-16T11:17:24;3.13;;;1.30;;
11548;SDS011;61444;59.472;18.306;2024-02-16T11:19:33;2.60;;;1.97;;
11548;SDS011;61444;59.472;18.306;2024-02-16T11:21:54;2.30;;;1.77;;
11548;SDS011;61444;59.472;18.306;2024-02-16T11:24:06;3.20;;;1.60;;
11548;SDS011;61444;59.472;18.306;2024-02-16T11:26:17;4.07;;;1.87;;
11548;SDS011;61444;59.472;18.306;2024-02-16T11:28:27;2.23;;;1.73;;
11548;SDS011;61444;59.472;18.306;2024-02-16T11:30:36;3.67;;;2.27;;
11548;SDS011;61444;59.472;18.306;2024-02-16T11:32:46;2.97;;;2.37;;
11548;SDS011;61444;59.472;18.306;2024-02-16T11:34:54;3.33;;;2.33;;
11548;SDS011;61444;59.472;18.306;2024-02-16T11:37:04;2.53;;;1.60;;
11548;SDS011;61444;59.472;18.306;2024-02-16T11:39:12;3.13;;;1.57;;
11548;SDS011;61444;59.472;18.306;2024-02-16T11:41:23;2.37;;;1.60;;
11548;SDS011;61444;59.472;18.306;2024-02-16T11:43:33;4.23;;;1.50;;
11548;SDS011;61444;59.472;18.306;2024-02-16T11:45:42;1.80;;;1.30;;
11548;SDS011;61444;59.472;18.306;2024-02-16T11:47:51;2.10;;;1.70;;
11548;SDS011;61444;59.472;18.306;2024-02-16T11:50:01;2.23;;;1.70;;
11548;SDS011;61444;59.472;18.306;2024-02-16T11:52:10;3.00;;;1.70;;
11548;SDS011;61444;59.472;18.306;2024-02-16T11:54:19;2.67;;;1.53;;
11548;SDS011;61444;59.472;18.306;2024-02-16T11:56:27;2.90;;;1.70;;
11548;SDS011;61444;59.472;18.306;2024-02-16T11:58:38;2.10;;;1.60;;
11548;SDS011;61444;59.472;18.306;2024-02-16T12:00:49;2.40;;;1.60;;
11548;SDS011;61444;59.472;18.306;2024-02-16T12:02:59;6.50;;;1.60;;
11548;SDS011;61444;59.472;18.306;2024-02-16T12:05:08;2.63;;;1.67;;
11548;SDS011;61444;59.472;18.306;2024-02-16T12:07:17;2.30;;;1.70;;
11548;SDS011;61444;59.472;18.306;2024-02-16T12:09:26;12.50;;;6.90;;
11548;SDS011;61444;59.472;18.306;2024-02-16T12:11:35;6.30;;;3.83;;
11548;SDS011;61444;59.472;18.306;2024-02-16T12:13:46;4.60;;;2.73;;
11548;SDS011;61444;59.472;18.306;2024-02-16T12:15:54;3.50;;;2.10;;
11548;SDS011;61444;59.472;18.306;2024-02-16T12:18:05;3.40;;;2.33;;
11548;SDS011;61444;59.472;18.306;2024-02-16T12:20:14;3.60;;;2.07;;
11548;SDS011;61444;59.472;18.306;2024-02-16T12:22:23;2.83;;;1.80;;
11548;SDS011;61444;59.472;18.306;2024-02-16T12:24:34;3.50;;;2.00;;
11548;SDS011;61444;59.472;18.306;2024-02-16T12:26:43;2.87;;;1.87;;
11548;SDS011;61444;59.472;18.306;2024-02-16T12:28:55;2.57;;;1.80;;
11548;SDS011;61444;59.472;18.306;2024-02-16T12:31:04;2.70;;;2.10;;
11548;SDS011;61444;59.472;18.306;2024-02-16T12:33:12;2.87;;;2.10;;
11548;SDS011;61444;59.472;18.306;2024-02-16T12:35:21;3.03;;;2.10;;
11548;SDS011;61444;59.472;18.306;2024-02-16T12:37:30;3.87;;;1.90;;
11548;SDS011;61444;59.472;18.306;2024-02-16T12:39:40;2.97;;;1.97;;